Aviation Digital Data Service (ADDS)

Output produced by METARs form (0332 UTC 24 June 2021)
found at http://aviationweather.gov/metar/data/
 
LFLX 240300Z AUTO 32004KT 6000 FEW010 12/11 Q1020 TEMPO BKN008
TAF AMD LFLX 240202Z 2402/2506 36008KT 9999 BKN035 
     TEMPO 2402/2408 BKN008